Time;durP1;ratioP1;P1;durP2;ratioP2;P2;SDS_P1;SDS_P2;PMS_P1;PMS_P2;Temp;Humidity;BMP_temperature;BMP_pressure;BME280_temperature;BME280_humidity;BME280_pressure;Samples;Min_cycle;Max_cycle;Signal;HPM_P1;HPM_P2
2022/05/05 00:01:48;;;;;;;10.20;6.00;;;20.20;99.90;;;;;;5057322;28;20376;-83
2022/05/05 00:04:15;;;;;;;10.10;5.28;;;20.00;99.90;;;;;;5055861;28;20378;-84
2022/05/05 00:06:42;;;;;;;11.10;6.80;;;19.60;99.90;;;;;;5066537;28;20403;-83
2022/05/05 00:09:09;;;;;;;8.15;4.13;;;19.50;99.90;;;;;;5056732;28;20501;-84
2022/05/05 00:14:27;;;;;;;4.90;3.10;;;19.60;99.90;;;;;;5069003;28;20374;-83
2022/05/05 00:16:57;;;;;;;7.33;3.20;;;19.70;99.90;;;;;;5069362;28;20389;-82
2022/05/05 00:19:25;;;;;;;3.70;2.20;;;19.70;99.90;;;;;;5069406;28;20420;-82
2022/05/05 00:21:53;;;;;;;5.32;1.42;;;19.80;99.90;;;;;;5069139;28;20397;-82
2022/05/05 00:24:20;;;;;;;7.78;2.00;;;19.90;99.90;;;;;;5069011;28;20416;-82
2022/05/05 00:26:48;;;;;;;9.50;2.00;;;19.80;99.90;;;;;;5068564;28;20409;-84
2022/05/05 00:29:15;;;;;;;5.93;1.90;;;19.80;99.90;;;;;;5068630;28;20386;-83
2022/05/05 00:31:43;;;;;;;5.00;1.60;;;19.80;99.90;;;;;;5068011;28;20385;-82
2022/05/05 00:34:10;;;;;;;4.40;1.65;;;19.80;99.90;;;;;;5068588;28;20467;-83
2022/05/05 00:36:41;;;;;;;4.37;1.70;;;20.00;99.90;;;;;;5068135;28;20423;-84
2022/05/05 00:39:11;;;;;;;3.45;1.50;;;20.50;99.90;;;;;;5068881;28;20449;-83
2022/05/05 00:41:42;;;;;;;5.05;1.50;;;20.80;99.90;;;;;;5067433;28;20398;-82
2022/05/05 00:44:10;;;;;;;5.88;1.77;;;21.10;99.90;;;;;;5068189;28;20378;-81
2022/05/05 00:46:37;;;;;;;3.13;1.48;;;21.30;99.90;;;;;;5065749;28;20438;-83
2022/05/05 00:49:04;;;;;;;2.42;1.20;;;21.50;99.90;;;;;;5068020;28;20389;-84
2022/05/05 00:51:31;;;;;;;1.77;1.13;;;21.70;99.90;;;;;;5067692;28;20390;-82
2022/05/05 00:53:58;;;;;;;2.67;1.10;;;21.90;99.90;;;;;;5068223;28;20436;-83
2022/05/05 00:56:26;;;;;;;2.67;1.20;;;22.10;99.90;;;;;;5067862;28;20370;-82
2022/05/05 00:58:56;;;;;;;2.87;1.10;;;22.20;99.90;;;;;;5067610;28;20393;-83
2022/05/05 01:01:23;;;;;;;4.18;1.40;;;22.10;99.90;;;;;;5065476;28;20393;-82
2022/05/05 01:03:53;;;;;;;3.88;1.30;;;22.30;99.90;;;;;;5048338;28;20772;-82
2022/05/05 01:06:20;;;;;;;9.37;1.70;;;22.40;99.90;;;;;;5064902;28;20414;-84
2022/05/05 01:08:47;;;;;;;3.42;1.20;;;22.30;99.90;;;;;;5067821;28;20463;-84
2022/05/05 01:11:14;;;;;;;2.20;0.90;;;22.20;99.90;;;;;;5081419;28;20527;-85
2022/05/05 01:13:42;;;;;;;2.40;0.98;;;21.90;99.90;;;;;;5067980;28;20389;-84
2022/05/05 01:16:10;;;;;;;2.05;0.90;;;21.90;99.90;;;;;;5067645;28;20390;-84
2022/05/05 01:18:38;;;;;;;2.08;0.80;;;22.10;99.90;;;;;;5067956;28;20445;-83
2022/05/05 01:21:08;;;;;;;2.78;0.90;;;22.40;99.90;;;;;;5068411;28;20370;-83
2022/05/05 01:23:35;;;;;;;4.70;1.00;;;22.80;99.90;;;;;;5068087;28;20409;-84
2022/05/05 01:28:49;;;;;;;5.65;1.23;;;24.00;98.00;;;;;;5067885;28;20368;-85
2022/05/05 01:31:26;;;;;;;3.95;0.80;;;24.20;93.60;;;;;;5104793;27;20345;-84
2022/05/05 01:33:53;;;;;;;2.75;1.00;;;24.00;93.80;;;;;;5104710;28;20372;-85
2022/05/05 01:36:20;;;;;;;6.13;1.30;;;23.70;95.80;;;;;;5104278;28;20380;-86
2022/05/05 01:38:47;;;;;;;4.47;1.10;;;23.40;96.90;;;;;;5104711;28;20429;-84
2022/05/05 01:41:15;;;;;;;5.28;1.20;;;23.50;94.60;;;;;;5112914;28;20378;-83
2022/05/05 01:43:45;;;;;;;6.80;1.30;;;24.00;94.10;;;;;;5125108;28;20457;-83
2022/05/05 01:46:14;;;;;;;4.60;1.25;;;24.70;91.90;;;;;;5104963;28;20819;-83
2022/05/05 01:48:41;;;;;;;4.53;1.30;;;25.40;89.40;;;;;;5104411;28;20391;-83
2022/05/05 01:51:08;;;;;;;3.83;1.20;;;25.90;84.80;;;;;;5104344;28;20410;-84
2022/05/05 01:53:38;;;;;;;3.90;1.20;;;25.80;81.90;;;;;;5103753;28;20903;-84
2022/05/05 01:56:12;;;;;;;3.38;1.20;;;25.50;83.60;;;;;;5103901;28;20372;-82
2022/05/05 01:58:44;;;;;;;5.30;1.20;;;25.40;84.10;;;;;;5104381;28;20778;-82
2022/05/05 02:01:12;;;;;;;8.68;1.85;;;25.20;83.30;;;;;;5102812;28;20402;-82
2022/05/05 02:03:39;;;;;;;4.22;1.02;;;24.50;84.60;;;;;;5107378;28;20390;-84
2022/05/05 02:06:07;;;;;;;2.58;1.10;;;23.90;85.60;;;;;;5104296;28;20372;-83
2022/05/05 02:08:34;;;;;;;1.80;0.90;;;23.30;89.40;;;;;;5104218;28;20380;-83
2022/05/05 02:11:01;;;;;;;7.20;1.30;;;23.00;91.30;;;;;;5103929;28;20444;-85
2022/05/05 02:13:28;;;;;;;4.35;1.08;;;23.30;90.90;;;;;;5103543;28;20375;-84
2022/05/05 02:15:55;;;;;;;2.85;0.90;;;23.80;89.90;;;;;;5103780;28;20391;-84
2022/05/05 02:18:22;;;;;;;1.73;1.00;;;23.60;88.90;;;;;;5104122;28;20382;-84
2022/05/05 02:20:49;;;;;;;1.98;1.00;;;23.50;87.70;;;;;;5104120;28;20481;-83
2022/05/05 02:23:16;;;;;;;4.20;1.20;;;23.20;89.60;;;;;;5103222;28;20855;-84
2022/05/05 02:25:43;;;;;;;8.50;1.60;;;22.80;91.90;;;;;;5103989;28;20380;-84
2022/05/05 02:28:10;;;;;;;4.07;1.10;;;22.90;92.60;;;;;;5103906;28;20443;-82
2022/05/05 02:30:37;;;;;;;2.97;1.10;;;23.20;91.80;;;;;;5103627;28;20407;-81
2022/05/05 02:33:04;;;;;;;4.35;1.20;;;23.40;90.60;;;;;;5103130;28;20384;-84
2022/05/05 02:35:31;;;;;;;3.85;1.20;;;23.10;90.10;;;;;;5103490;28;20462;-84
2022/05/05 02:40:44;;;;;;;2.80;1.10;;;22.90;89.00;;;;;;5101773;28;20906;-83
2022/05/05 02:43:10;;;;;;;5.47;1.15;;;22.90;89.80;;;;;;5089861;28;20400;-83
2022/05/05 02:45:37;;;;;;;2.67;1.20;;;22.90;88.80;;;;;;5089744;28;20411;-86
2022/05/05 02:48:05;;;;;;;2.85;1.02;;;23.10;87.10;;;;;;5089856;28;20864;-82
2022/05/05 02:50:32;;;;;;;1.83;1.00;;;23.50;85.50;;;;;;5090743;28;20495;-81
2022/05/05 02:52:59;;;;;;;2.88;1.10;;;23.50;82.00;;;;;;5089413;28;20376;-84
2022/05/05 02:55:27;;;;;;;3.78;1.10;;;23.70;84.10;;;;;;5089654;28;20383;-84
2022/05/05 02:57:56;;;;;;;2.63;0.90;;;24.20;78.70;;;;;;5089304;28;20375;-85
2022/05/05 03:00:23;;;;;;;6.60;1.20;;;24.50;76.70;;;;;;5089514;28;20416;-83
2022/05/05 03:02:54;;;;;;;3.03;0.98;;;24.70;75.90;;;;;;5089287;28;20415;-84
2022/05/05 03:05:20;;;;;;;1.85;0.93;;;25.00;74.30;;;;;;5089571;28;20369;-83
2022/05/05 03:07:48;;;;;;;2.13;1.00;;;25.50;72.30;;;;;;5089361;28;20958;-85
2022/05/05 03:10:15;;;;;;;4.28;1.10;;;25.50;74.20;;;;;;5089090;28;20489;-83
2022/05/05 03:12:42;;;;;;;1.20;0.80;;;24.80;75.90;;;;;;5089328;28;20388;-85
2022/05/05 03:15:09;;;;;;;1.27;0.82;;;24.60;75.00;;;;;;5089487;28;20376;-83
2022/05/05 03:17:36;;;;;;;1.67;0.90;;;25.00;76.20;;;;;;5089526;28;20457;-82
2022/05/05 03:20:04;;;;;;;1.40;0.90;;;25.10;72.40;;;;;;5088441;28;20395;-83
2022/05/05 03:22:31;;;;;;;1.15;0.93;;;25.30;71.40;;;;;;5088588;28;20369;-82
2022/05/05 03:24:58;;;;;;;2.05;1.00;;;25.80;71.30;;;;;;5088754;28;20909;-84
2022/05/05 03:27:25;;;;;;;2.45;1.10;;;26.10;70.00;;;;;;5088961;28;20377;-83
2022/05/05 03:29:52;;;;;;;1.50;1.00;;;26.40;71.40;;;;;;5088269;28;20416;-83
2022/05/05 03:32:19;;;;;;;2.03;1.00;;;27.20;66.10;;;;;;5088635;28;20521;-83
2022/05/05 03:34:46;;;;;;;1.77;1.00;;;26.40;64.10;;;;;;5088616;28;20390;-84
2022/05/05 03:37:13;;;;;;;2.95;0.85;;;25.80;67.70;;;;;;5089407;28;20875;-83
2022/05/05 03:39:40;;;;;;;2.70;1.00;;;25.80;68.10;;;;;;5090865;28;20381;-84
2022/05/05 03:42:07;;;;;;;2.25;0.90;;;26.20;68.30;;;;;;5090293;28;20868;-84
2022/05/05 03:44:34;;;;;;;3.83;1.02;;;26.00;67.40;;;;;;5089411;28;20373;-84
2022/05/05 03:47:01;;;;;;;2.13;0.93;;;25.00;70.20;;;;;;5089249;28;20419;-83
2022/05/05 03:49:28;;;;;;;1.70;0.90;;;24.60;71.60;;;;;;5084593;28;20748;-85
2022/05/05 03:51:58;;;;;;;1.50;0.90;;;24.40;72.80;;;;;;5088675;28;20384;-83
2022/05/05 03:54:26;;;;;;;2.83;1.00;;;24.20;74.40;;;;;;5088153;28;20467;-84
2022/05/05 03:56:53;;;;;;;2.47;1.10;;;23.80;76.30;;;;;;5088592;28;20433;-84
2022/05/05 03:59:22;;;;;;;2.10;1.00;;;23.40;76.90;;;;;;5088361;28;20385;-84
2022/05/05 04:01:50;;;;;;;1.53;0.90;;;23.40;77.00;;;;;;5088659;28;20376;-84
2022/05/05 04:04:17;;;;;;;1.60;0.95;;;23.20;77.40;;;;;;5088642;28;20384;-85
2022/05/05 04:06:44;;;;;;;2.60;1.00;;;23.10;78.30;;;;;;5088107;28;20868;-85
2022/05/05 04:09:11;;;;;;;1.90;0.93;;;23.00;78.30;;;;;;5087877;28;20385;-85
2022/05/05 04:11:38;;;;;;;2.03;1.00;;;22.90;79.40;;;;;;5088106;28;20473;-85
2022/05/05 04:14:06;;;;;;;2.35;0.93;;;22.90;78.20;;;;;;5087707;28;20446;-86
2022/05/05 04:16:33;;;;;;;2.45;0.98;;;22.70;79.70;;;;;;5088070;28;20384;-83
2022/05/05 04:19:03;;;;;;;5.60;1.40;;;22.60;80.40;;;;;;5088281;28;20405;-84
2022/05/05 04:21:31;;;;;;;4.93;1.10;;;22.50;82.10;;;;;;5087455;28;20423;-85
2022/05/05 04:23:58;;;;;;;10.00;1.73;;;22.40;82.20;;;;;;5088310;28;20384;-84
2022/05/05 04:26:25;;;;;;;5.83;1.57;;;22.40;81.70;;;;;;5087511;28;20380;-83
2022/05/05 04:28:53;;;;;;;4.25;1.23;;;22.40;82.30;;;;;;5088313;28;20396;-84
2022/05/05 04:31:22;;;;;;;5.97;1.40;;;22.40;81.70;;;;;;5087651;28;20412;-85
2022/05/05 04:33:49;;;;;;;5.65;1.30;;;22.50;81.80;;;;;;5087535;28;20410;-84
2022/05/05 04:36:16;;;;;;;6.57;1.40;;;22.90;83.40;;;;;;5087327;28;20453;-85
2022/05/05 04:38:44;;;;;;;1.75;0.93;;;23.60;81.30;;;;;;5088059;28;20373;-85
2022/05/05 04:41:14;;;;;;;2.45;1.05;;;24.50;77.10;;;;;;5087737;28;20484;-84
2022/05/05 04:43:41;;;;;;;2.50;1.08;;;25.30;73.00;;;;;;5088500;28;20388;-85
2022/05/05 04:46:09;;;;;;;2.67;1.10;;;24.80;72.10;;;;;;5087098;28;20415;-84
2022/05/05 04:48:36;;;;;;;2.80;0.90;;;24.40;74.00;;;;;;5086454;28;20913;-83
2022/05/05 04:51:03;;;;;;;3.08;1.10;;;24.00;75.30;;;;;;5087583;28;20446;-84
2022/05/05 04:53:30;;;;;;;2.53;1.00;;;23.60;76.90;;;;;;5087325;28;20455;-84
2022/05/05 04:55:57;;;;;;;3.85;0.90;;;23.50;76.40;;;;;;5087737;28;20966;-83
2022/05/05 04:58:24;;;;;;;4.07;1.20;;;23.30;76.00;;;;;;5087659;28;20468;-83
2022/05/05 05:00:53;;;;;;;3.03;1.30;;;23.10;79.40;;;;;;5087381;28;20385;-84
2022/05/05 05:03:39;;;;;;;3.63;1.08;;;23.10;77.80;;;;;;5086995;28;20372;-84
2022/05/05 05:06:08;;;;;;;2.88;1.10;;;23.00;77.70;;;;;;5087316;28;20412;-84
2022/05/05 05:08:36;;;;;;;2.08;1.00;;;22.90;79.50;;;;;;5087330;28;20886;-83
2022/05/05 05:11:03;;;;;;;2.55;1.17;;;23.00;79.60;;;;;;5087196;28;20444;-84
2022/05/05 05:13:30;;;;;;;2.08;1.02;;;23.20;79.60;;;;;;5087242;28;20479;-81
2022/05/05 05:15:57;;;;;;;5.07;0.90;;;23.30;77.60;;;;;;5086985;28;20454;-82
2022/05/05 05:18:24;;;;;;;2.00;1.10;;;23.40;76.10;;;;;;5087008;28;20481;-82
2022/05/05 05:20:52;;;;;;;2.83;1.10;;;23.20;77.00;;;;;;5087047;28;20380;-83
2022/05/05 05:23:19;;;;;;;1.63;0.90;;;23.00;77.20;;;;;;5066949;28;20370;-83
2022/05/05 05:25:46;;;;;;;1.90;0.90;;;22.80;79.20;;;;;;5080603;28;20416;-83
2022/05/05 05:28:16;;;;;;;1.70;1.00;;;22.50;80.70;;;;;;5086734;28;20399;-83
2022/05/05 05:30:43;;;;;;;3.22;1.00;;;22.50;81.80;;;;;;5086538;28;20962;-84
2022/05/05 05:33:10;;;;;;;1.58;1.00;;;22.80;81.80;;;;;;5086973;28;20709;-83
2022/05/05 05:35:38;;;;;;;2.05;1.10;;;23.00;80.40;;;;;;5086993;28;20384;-83
2022/05/05 05:38:06;;;;;;;2.70;1.10;;;23.10;80.70;;;;;;5086633;28;20380;-81
2022/05/05 05:40:33;;;;;;;2.50;1.13;;;23.30;81.00;;;;;;5087188;28;20460;-83
2022/05/05 05:43:00;;;;;;;2.10;1.00;;;23.30;80.50;;;;;;5087223;28;20817;-84
2022/05/05 05:45:27;;;;;;;3.77;1.10;;;23.20;80.70;;;;;;5086961;28;20420;-82
2022/05/05 05:47:54;;;;;;;3.75;1.30;;;23.00;81.70;;;;;;5086227;28;20391;-84
2022/05/05 05:50:21;;;;;;;2.70;1.10;;;23.00;82.40;;;;;;5086832;28;20478;-83
2022/05/05 05:52:48;;;;;;;2.15;1.05;;;22.90;83.00;;;;;;5086321;28;20388;-83
2022/05/05 05:55:16;;;;;;;2.70;1.10;;;23.00;83.50;;;;;;5086528;28;20487;-84
2022/05/05 05:57:43;;;;;;;2.20;1.25;;;23.00;82.20;;;;;;5086859;28;20392;-84
2022/05/05 06:00:10;;;;;;;2.35;1.20;;;22.90;82.40;;;;;;5087421;28;20368;-83
2022/05/05 06:05:22;;;;;;;4.28;1.23;;;22.70;83.30;;;;;;5086877;28;20383;-83
2022/05/05 06:07:49;;;;;;;2.28;1.20;;;22.60;83.60;;;;;;5086159;28;20407;-83
2022/05/05 06:10:20;;;;;;;2.13;1.10;;;22.60;83.90;;;;;;5086862;28;20432;-83
2022/05/05 06:12:47;;;;;;;2.10;1.10;;;22.50;83.50;;;;;;5086278;28;20473;-84
2022/05/05 06:15:14;;;;;;;3.45;1.27;;;22.40;84.00;;;;;;5086444;28;20409;-83
2022/05/05 06:17:41;;;;;;;2.53;1.30;;;22.30;85.00;;;;;;5089797;28;20767;-82
2022/05/05 06:20:09;;;;;;;1.92;1.33;;;22.20;86.20;;;;;;5090670;28;20376;-86
2022/05/05 06:22:39;;;;;;;2.90;1.40;;;22.20;88.40;;;;;;5090117;28;20372;-83
2022/05/05 06:25:07;;;;;;;3.78;1.20;;;22.10;90.00;;;;;;5092327;28;20380;-87
2022/05/05 06:27:34;;;;;;;2.50;1.45;;;22.10;90.30;;;;;;5095313;28;20859;-85
2022/05/05 06:30:02;;;;;;;4.47;1.60;;;22.10;91.10;;;;;;5110217;28;20762;-83
2022/05/05 06:32:29;;;;;;;3.65;1.60;;;22.10;92.50;;;;;;5108634;28;20376;-84
2022/05/05 06:34:56;;;;;;;5.30;1.70;;;22.00;94.20;;;;;;5110585;28;20375;-86
2022/05/05 06:37:24;;;;;;;3.90;1.40;;;21.90;94.50;;;;;;5111139;28;20398;-86
2022/05/05 06:39:51;;;;;;;2.72;1.25;;;21.80;94.20;;;;;;5110940;28;20925;-86
2022/05/05 06:42:18;;;;;;;4.38;1.38;;;21.60;94.20;;;;;;5109386;28;20397;-83
2022/05/05 06:44:45;;;;;;;3.30;1.40;;;21.50;94.60;;;;;;5099176;28;20871;-87
2022/05/05 06:47:13;;;;;;;4.82;1.50;;;21.30;95.80;;;;;;5091339;28;20398;-85
2022/05/05 06:49:39;;;;;;;5.85;1.60;;;21.20;96.50;;;;;;5091268;28;20439;-83
2022/05/05 06:52:07;;;;;;;4.00;1.60;;;21.10;97.00;;;;;;5089358;28;20482;-85
2022/05/05 06:54:34;;;;;;;6.27;2.00;;;21.00;97.60;;;;;;5094279;28;20371;-83
2022/05/05 06:57:02;;;;;;;4.80;1.77;;;20.90;98.30;;;;;;5108561;28;20438;-88
2022/05/05 06:59:30;;;;;;;4.82;1.95;;;20.80;98.90;;;;;;5110494;28;20453;-82
2022/05/05 07:02:01;;;;;;;4.63;2.00;;;20.70;99.60;;;;;;5109475;27;20864;-85
2022/05/05 07:07:16;;;;;;;6.13;1.90;;;20.60;99.90;;;;;;5081020;28;20396;-86
2022/05/05 07:12:30;;;;;;;4.10;1.75;;;20.30;99.90;;;;;;5102579;28;20964;-84
2022/05/05 07:14:57;;;;;;;6.78;2.63;;;20.10;99.90;;;;;;5089210;28;20384;-82
2022/05/05 07:17:25;;;;;;;8.88;3.40;;;20.00;99.90;;;;;;5089363;28;20419;-84
2022/05/05 07:19:54;;;;;;;14.07;4.85;;;19.80;99.90;;;;;;5110282;28;20383;-84
2022/05/05 07:22:21;;;;;;;4.65;2.05;;;19.70;99.90;;;;;;5105723;28;20383;-83
2022/05/05 07:24:48;;;;;;;10.73;3.40;;;19.60;99.90;;;;;;5089138;28;20372;-83
2022/05/05 07:27:15;;;;;;;6.37;2.10;;;19.40;99.90;;;;;;5088197;28;20815;-85
2022/05/05 07:29:42;;;;;;;9.40;2.90;;;19.30;99.90;;;;;;5108439;28;20796;-84
2022/05/05 07:32:10;;;;;;;4.43;1.90;;;19.20;99.90;;;;;;5108808;28;20462;-83
2022/05/05 07:34:39;;;;;;;4.32;2.08;;;19.20;99.90;;;;;;5109425;28;20382;-84
2022/05/05 07:37:06;;;;;;;5.10;2.08;;;19.10;99.90;;;;;;5103271;28;20508;-88
2022/05/05 07:39:33;;;;;;;5.18;2.00;;;19.00;99.90;;;;;;5092271;28;20901;-88
2022/05/05 07:42:00;;;;;;;5.80;2.53;;;18.90;99.90;;;;;;5096915;28;20459;-84
2022/05/05 07:44:27;;;;;;;4.53;2.15;;;18.80;99.90;;;;;;5089527;28;20380;-84
2022/05/05 07:46:54;;;;;;;8.15;2.15;;;18.70;99.90;;;;;;5092190;28;20429;-87
2022/05/05 07:49:22;;;;;;;5.20;2.20;;;18.50;99.90;;;;;;5092575;28;20909;-85
2022/05/05 07:51:52;;;;;;;7.22;2.25;;;18.50;99.90;;;;;;5109706;28;20379;-86
2022/05/05 07:54:35;;;;;;;6.90;2.10;;;18.40;99.90;;;;;;5109075;28;20429;-87
2022/05/05 07:57:03;;;;;;;6.97;2.28;;;18.30;99.90;;;;;;5109087;28;20442;-85
2022/05/05 07:59:30;;;;;;;5.22;2.40;;;18.30;99.90;;;;;;5109641;28;20375;-81
2022/05/05 08:01:57;;;;;;;5.45;2.40;;;18.30;99.90;;;;;;5108895;28;20885;-87
2022/05/05 08:04:24;;;;;;;6.07;2.35;;;18.20;99.90;;;;;;5110352;28;20378;-90
2022/05/05 08:06:51;;;;;;;5.60;2.35;;;18.20;99.90;;;;;;5110922;28;20375;-81
2022/05/05 08:09:18;;;;;;;8.60;2.30;;;18.20;99.90;;;;;;5105621;28;20483;-90
2022/05/05 08:11:48;;;;;;;5.72;2.60;;;18.10;99.90;;;;;;5104554;27;21095;-86
2022/05/05 08:14:15;;;;;;;8.13;2.80;;;18.00;99.90;;;;;;5102985;28;20361;-86
2022/05/05 08:16:42;;;;;;;9.77;2.83;;;18.00;99.90;;;;;;5101359;28;20380;-83
2022/05/05 08:19:09;;;;;;;5.97;2.58;;;18.00;99.90;;;;;;5119679;28;20387;-78
2022/05/05 08:21:36;;;;;;;8.60;2.80;;;18.00;99.90;;;;;;5120157;28;20367;-80
2022/05/05 08:29:33;;;;;;;5.88;2.20;;;17.90;99.90;;;;;;5106839;28;20410;-79
2022/05/05 08:32:00;;;;;;;6.70;2.28;;;17.90;99.90;;;;;;5108772;28;20391;-78
2022/05/05 08:34:27;;;;;;;6.30;2.85;;;17.90;99.90;;;;;;5124920;28;20359;-84
2022/05/05 08:36:54;;;;;;;8.90;2.67;;;17.90;99.90;;;;;;5116065;28;20391;-80
2022/05/05 08:39:22;;;;;;;5.70;2.40;;;17.80;99.90;;;;;;5106276;28;20435;-79
2022/05/05 08:41:49;;;;;;;7.05;2.70;;;17.80;99.90;;;;;;5107113;28;20504;-81
2022/05/05 08:44:17;;;;;;;8.85;2.50;;;17.70;99.90;;;;;;5103022;28;20384;-89
2022/05/05 08:46:48;;;;;;;5.38;2.13;;;17.70;99.90;;;;;;5106079;28;20383;-82
2022/05/05 08:49:19;;;;;;;7.35;2.33;;;17.60;99.90;;;;;;5109621;28;20402;-83
2022/05/05 08:51:49;;;;;;;4.80;2.15;;;17.60;99.90;;;;;;5101148;28;20471;-80
2022/05/05 08:54:17;;;;;;;5.47;2.30;;;17.50;99.90;;;;;;5114633;28;20432;-88
2022/05/05 08:56:50;;;;;;;7.00;2.33;;;17.40;99.90;;;;;;5101393;28;20423;-85
2022/05/05 08:59:21;;;;;;;5.05;2.08;;;17.40;99.90;;;;;;5090418;28;20728;-88
2022/05/05 09:01:51;;;;;;;6.10;2.00;;;17.40;99.90;;;;;;5089321;28;20458;-83
2022/05/05 09:04:21;;;;;;;6.13;2.10;;;17.30;99.90;;;;;;5086928;28;20478;-82
2022/05/05 09:06:51;;;;;;;10.23;2.15;;;17.40;99.90;;;;;;5088383;28;20381;-83
2022/05/05 09:09:34;;;;;;;7.00;2.10;;;17.40;99.90;;;;;;5087434;28;20372;-85
2022/05/05 09:12:12;;;;;;;7.65;2.30;;;17.40;99.90;;;;;;5087706;28;20883;-82
2022/05/05 09:14:50;;;;;;;4.53;2.20;;;17.40;99.90;;;;;;5087520;28;20368;-85
2022/05/05 09:17:22;;;;;;;7.30;2.40;;;17.40;99.90;;;;;;5092447;28;20480;-86
2022/05/05 09:19:54;;;;;;;6.00;2.35;;;17.50;99.90;;;;;;5088252;28;20380;-84
2022/05/05 09:22:23;;;;;;;7.22;2.80;;;17.40;99.90;;;;;;5087550;28;20385;-87
2022/05/05 09:24:52;;;;;;;10.88;2.67;;;17.50;99.90;;;;;;5087584;28;20473;-83
2022/05/05 09:27:31;;;;;;;6.40;2.70;;;17.50;99.90;;;;;;5085815;28;21170;-87
2022/05/05 09:30:05;;;;;;;7.80;2.65;;;17.50;99.90;;;;;;5086230;28;20432;-86
2022/05/05 09:32:38;;;;;;;7.78;2.70;;;17.50;99.90;;;;;;5086872;28;20886;-85
2022/05/05 09:35:10;;;;;;;5.93;2.40;;;17.50;99.90;;;;;;5087009;28;20375;-85
2022/05/05 09:37:44;;;;;;;7.50;2.50;;;17.50;99.90;;;;;;5086266;28;20396;-87
2022/05/05 09:40:14;;;;;;;8.15;2.60;;;17.50;99.90;;;;;;5087406;28;20901;-85
2022/05/05 09:42:46;;;;;;;8.38;2.78;;;17.50;99.90;;;;;;5086689;28;20471;-88
2022/05/05 09:45:18;;;;;;;5.80;2.50;;;17.40;99.90;;;;;;5090329;28;20389;-83
2022/05/05 09:47:46;;;;;;;7.15;2.50;;;17.30;99.90;;;;;;5100235;28;20433;-84
2022/05/05 09:50:14;;;;;;;7.03;2.80;;;17.20;99.90;;;;;;5086034;28;20910;-86
2022/05/05 09:58:22;;;;;;;7.37;2.70;;;17.10;99.90;;;;;;5089952;28;20406;-85
2022/05/05 10:01:04;;;;;;;8.73;3.13;;;17.10;99.90;;;;;;5090966;28;20372;-87
2022/05/05 10:04:05;;;;;;;6.53;2.60;;;17.00;99.90;;;;;;5091983;28;20370;-88
2022/05/05 10:06:43;;;;;;;7.30;2.92;;;17.00;99.90;;;;;;5090710;28;20388;-86
2022/05/05 10:09:19;;;;;;;7.45;2.83;;;17.10;99.90;;;;;;5093879;28;20881;-87
2022/05/05 10:11:47;;;;;;;6.68;2.70;;;17.00;99.90;;;;;;5109430;28;20391;-87
2022/05/05 10:14:16;;;;;;;6.87;2.60;;;17.00;99.90;;;;;;5111002;28;20381;-84
2022/05/05 10:16:43;;;;;;;6.70;2.70;;;17.00;99.90;;;;;;5111090;28;20378;-87
2022/05/05 10:19:11;;;;;;;8.38;2.90;;;17.00;99.90;;;;;;5111085;28;20449;-89
2022/05/05 10:21:52;;;;;;;9.00;2.90;;;17.00;99.90;;;;;;5101956;28;20934;-86
2022/05/05 10:24:37;;;;;;;7.88;2.75;;;17.00;99.90;;;;;;5090718;28;20369;-86
2022/05/05 10:27:05;;;;;;;7.45;3.10;;;17.10;99.90;;;;;;5070276;28;20738;-87
2022/05/05 10:29:35;;;;;;;8.95;3.00;;;17.10;99.90;;;;;;5069779;28;20881;-86
2022/05/05 10:32:18;;;;;;;7.38;2.70;;;17.20;99.90;;;;;;5074369;28;20402;-86
2022/05/05 10:34:47;;;;;;;9.10;2.60;;;17.20;99.90;;;;;;5090606;28;20398;-85
2022/05/05 10:37:18;;;;;;;6.80;2.58;;;17.20;99.90;;;;;;5088305;28;20397;-86
2022/05/05 10:40:01;;;;;;;7.85;2.60;;;17.30;99.90;;;;;;5092648;28;20645;-86
2022/05/05 10:42:32;;;;;;;10.60;2.90;;;17.30;99.90;;;;;;5090029;28;20804;-87
2022/05/05 10:45:33;;;;;;;10.45;2.83;;;17.30;99.90;;;;;;5090197;28;20844;-86
2022/05/05 10:50:30;;;;;;;8.88;2.70;;;17.30;99.90;;;;;;5094042;28;20573;-89
2022/05/05 10:52:58;;;;;;;11.50;3.35;;;17.20;99.90;;;;;;5088598;28;20377;-89
2022/05/05 10:55:34;;;;;;;9.35;3.00;;;17.30;99.90;;;;;;5100652;28;20386;-85
2022/05/05 10:58:01;;;;;;;10.68;3.00;;;17.20;99.90;;;;;;5107265;28;20870;-89
2022/05/05 11:00:42;;;;;;;8.18;2.90;;;17.20;99.90;;;;;;5111080;28;20420;-89
2022/05/05 11:03:18;;;;;;;8.57;2.90;;;17.20;99.90;;;;;;5110684;28;20458;-86
2022/05/05 11:05:45;;;;;;;8.10;2.80;;;17.10;99.90;;;;;;5110674;28;20375;-86
2022/05/05 11:08:31;;;;;;;8.98;2.85;;;17.10;99.90;;;;;;5110512;28;20389;-89
2022/05/05 11:13:45;;;;;;;7.53;3.00;;;16.90;99.90;;;;;;5111082;28;20398;-83
2022/05/05 11:22:25;;;;;;;23.92;4.10;;;16.60;99.90;;;;;;5110833;28;20386;-88
2022/05/05 11:24:53;;;;;;;39.17;5.57;;;16.60;99.90;;;;;;5110236;28;20375;-88
2022/05/05 11:27:23;;;;;;;43.78;6.45;;;16.60;99.90;;;;;;5100101;28;20405;-88
2022/05/05 11:29:57;;;;;;;39.70;5.65;;;16.60;99.90;;;;;;5089301;28;20409;-89
2022/05/05 11:32:34;;;;;;;25.80;4.70;;;16.60;99.90;;;;;;5092932;28;20379;-86
2022/05/05 11:35:02;;;;;;;16.50;3.20;;;16.60;99.90;;;;;;5104206;28;20388;-87
2022/05/05 11:37:31;;;;;;;16.30;3.20;;;16.60;99.90;;;;;;5089186;28;20388;-90
2022/05/05 11:40:02;;;;;;;12.52;2.97;;;16.60;99.90;;;;;;5089467;28;20763;-89
2022/05/05 11:42:29;;;;;;;12.95;3.78;;;16.70;99.90;;;;;;5088747;28;20454;-90
2022/05/05 11:44:56;;;;;;;13.45;3.90;;;16.70;99.90;;;;;;5089866;28;20381;-86
2022/05/05 11:47:24;;;;;;;16.88;3.70;;;16.60;99.90;;;;;;5088587;28;20741;-87
2022/05/05 11:49:52;;;;;;;13.82;3.70;;;16.50;99.90;;;;;;5088719;28;20399;-84
2022/05/05 11:52:21;;;;;;;16.00;3.70;;;16.60;99.90;;;;;;5090919;28;20394;-90
2022/05/05 11:54:54;;;;;;;10.88;3.50;;;16.50;99.90;;;;;;5087440;28;20387;-88
2022/05/05 11:57:33;;;;;;;13.27;3.60;;;16.50;99.90;;;;;;5087902;28;20754;-87
2022/05/05 12:02:45;;;;;;;11.45;4.00;;;16.50;99.90;;;;;;5088434;28;20384;-86
2022/05/05 12:05:14;;;;;;;15.40;4.03;;;16.60;99.90;;;;;;5087362;28;20387;-90
2022/05/05 12:07:44;;;;;;;15.93;3.67;;;16.60;99.90;;;;;;5088221;28;20482;-88
2022/05/05 12:10:13;;;;;;;11.67;3.77;;;16.60;99.90;;;;;;5088393;28;20876;-89
2022/05/05 12:12:45;;;;;;;19.23;4.60;;;16.60;99.90;;;;;;5094988;28;20472;-89
2022/05/05 12:15:14;;;;;;;25.75;5.53;;;16.60;99.90;;;;;;5087933;28;20856;-87
2022/05/05 12:17:57;;;;;;;19.80;4.65;;;16.50;99.90;;;;;;5087528;28;20868;-87
2022/05/05 12:20:26;;;;;;;15.75;4.10;;;16.60;99.90;;;;;;5091194;28;20570;-87
2022/05/05 12:22:55;;;;;;;17.52;4.05;;;16.60;99.90;;;;;;5100998;28;20385;-84
2022/05/05 12:25:24;;;;;;;17.00;4.28;;;16.60;99.90;;;;;;5093228;28;20390;-86
2022/05/05 12:28:03;;;;;;;13.07;4.00;;;16.60;99.90;;;;;;5098660;28;20419;-89
2022/05/05 12:30:39;;;;;;;9.23;3.50;;;16.50;99.90;;;;;;5087965;28;20430;-84
2022/05/05 12:33:08;;;;;;;10.98;3.65;;;16.40;99.90;;;;;;5093410;28;20454;-86
2022/05/05 12:35:37;;;;;;;8.82;3.45;;;16.40;99.90;;;;;;5098761;28;20449;-88
2022/05/05 12:38:06;;;;;;;9.15;3.00;;;16.40;99.90;;;;;;5092397;28;20933;-86
2022/05/05 12:40:35;;;;;;;9.45;3.40;;;16.30;99.90;;;;;;5088114;28;20407;-88
2022/05/05 12:43:10;;;;;;;6.68;2.70;;;16.30;99.90;;;;;;5087865;28;20444;-86
2022/05/05 12:45:38;;;;;;;7.05;2.50;;;16.20;99.90;;;;;;5069638;28;20382;-89
2022/05/05 12:48:07;;;;;;;5.70;2.00;;;16.10;99.90;;;;;;5076455;28;20394;-87
2022/05/05 12:50:41;;;;;;;5.97;1.90;;;16.00;99.90;;;;;;5087002;28;20472;-85
2022/05/05 13:01:43;;;;;;;7.35;1.88;;;16.20;99.90;;;;;;5087909;28;20787;-87
2022/05/05 13:04:14;;;;;;;7.50;1.88;;;16.20;99.90;;;;;;5088126;28;20376;-84
2022/05/05 13:06:42;;;;;;;5.53;1.80;;;16.20;99.90;;;;;;5088441;28;20422;-88
2022/05/05 13:09:11;;;;;;;6.70;1.92;;;16.20;99.90;;;;;;5087921;28;20422;-86
2022/05/05 13:11:44;;;;;;;7.20;1.92;;;16.30;99.90;;;;;;5088408;28;20403;-86
2022/05/05 13:14:12;;;;;;;10.37;1.70;;;16.20;99.90;;;;;;5086628;28;20433;-86
2022/05/05 13:16:39;;;;;;;10.98;1.70;;;16.20;99.90;;;;;;5092932;28;20903;-84
2022/05/05 13:19:07;;;;;;;12.15;2.00;;;16.20;99.90;;;;;;5087511;28;20380;-90
2022/05/05 13:21:36;;;;;;;17.00;2.00;;;16.20;99.90;;;;;;5088134;28;20458;-88
2022/05/05 13:24:04;;;;;;;6.20;1.70;;;16.20;99.90;;;;;;5087901;28;20413;-90
2022/05/05 13:26:31;;;;;;;4.97;1.50;;;16.20;99.90;;;;;;5088306;28;20599;-91
2022/05/05 13:29:00;;;;;;;5.53;1.80;;;16.20;99.90;;;;;;5088237;28;20384;-86
2022/05/05 13:31:27;;;;;;;3.30;1.70;;;16.20;99.90;;;;;;5087286;28;20907;-89
2022/05/05 13:33:54;;;;;;;3.65;2.20;;;16.20;99.90;;;;;;5093538;28;20399;-89
2022/05/05 13:36:21;;;;;;;4.68;2.20;;;16.20;99.90;;;;;;5099157;28;20388;-83
2022/05/05 13:38:49;;;;;;;5.80;2.50;;;16.10;99.90;;;;;;5100546;28;20380;-82
2022/05/05 13:41:16;;;;;;;4.63;1.65;;;16.20;99.90;;;;;;5099475;28;20388;-86
2022/05/05 13:43:43;;;;;;;3.85;1.60;;;16.10;99.90;;;;;;5098698;28;20383;-85
2022/05/05 13:46:10;;;;;;;4.38;1.58;;;16.00;99.90;;;;;;5097315;28;20481;-89